createdAt,value
2018-02-18T00:01:49.177Z,102048.33
2018-02-18T00:04:17.598Z,102052.33
2018-02-18T00:06:46.793Z,102054.02
2018-02-18T00:09:15.203Z,102048.75
2018-02-18T00:11:43.684Z,102045.10
2018-02-18T00:14:12.067Z,102058.93
2018-02-18T00:16:40.606Z,102050.02
2018-02-18T00:19:08.995Z,102058.25
2018-02-18T00:21:37.415Z,102057.98
2018-02-18T00:24:05.826Z,102056.80
2018-02-18T00:26:34.249Z,102057.78
2018-02-18T00:29:03.668Z,102057.45
2018-02-18T00:31:32.081Z,102063.55
2018-02-18T00:34:00.978Z,102061.30
2018-02-18T00:36:29.415Z,102065.02
2018-02-18T00:38:58.765Z,102069.56
2018-02-18T00:41:27.164Z,102071.41
2018-02-18T00:43:55.594Z,102070.69
2018-02-18T00:46:24.004Z,102065.53
2018-02-18T00:48:52.595Z,102062.45
2018-02-18T00:51:21.807Z,102068.76
2018-02-18T00:53:50.233Z,102080.58
2018-02-18T00:56:18.657Z,102078.13
2018-02-18T00:58:47.113Z,102082.96
2018-02-18T01:01:15.507Z,102078.81
2018-02-18T01:03:43.946Z,102079.46
2018-02-18T01:06:13.140Z,102079.97
2018-02-18T01:08:42.334Z,102078.36
2018-02-18T01:11:10.824Z,102070.45
2018-02-18T01:13:39.234Z,102072.64
2018-02-18T01:16:07.619Z,102079.67
2018-02-18T01:18:36.076Z,102085.11
2018-02-18T01:21:04.480Z,102089.08
2018-02-18T01:23:32.890Z,102097.52
2018-02-18T01:26:01.292Z,102105.70
2018-02-18T01:28:30.545Z,102098.78
2018-02-18T01:30:58.956Z,102100.77
2018-02-18T01:33:28.013Z,102101.09
2018-02-18T01:35:56.420Z,102095.60
2018-02-18T01:38:24.818Z,102097.86
2018-02-18T01:40:53.340Z,102096.73
2018-02-18T01:43:21.756Z,102095.22
2018-02-18T01:45:50.194Z,102088.19
2018-02-18T01:48:19.346Z,102095.60
2018-02-18T01:50:47.746Z,102105.41
2018-02-18T01:53:16.146Z,102103.54
2018-02-18T01:55:45.300Z,102098.00
2018-02-18T01:58:14.513Z,102098.84
2018-02-18T02:00:43.068Z,102092.05
2018-02-18T02:03:11.739Z,102103.51
2018-02-18T02:05:40.377Z,102094.67
2018-02-18T02:08:09.539Z,102096.83
2018-02-18T02:10:37.931Z,102097.98
2018-02-18T02:13:06.369Z,102101.70
2018-02-18T02:15:34.775Z,102098.27
2018-02-18T02:18:03.224Z,102093.42
2018-02-18T02:20:31.683Z,102093.05
2018-02-18T02:23:00.098Z,102094.39
2018-02-18T02:25:28.503Z,102096.94
2018-02-18T02:27:57.048Z,102099.92
2018-02-18T02:30:26.216Z,102102.44
2018-02-18T02:32:54.627Z,102104.81
2018-02-18T02:35:23.853Z,102105.77
2018-02-18T02:37:52.996Z,102098.95
2018-02-18T02:40:21.397Z,102100.00
2018-02-18T02:42:50.547Z,102092.48
2018-02-18T02:45:19.052Z,102092.37
2018-02-18T02:47:47.592Z,102095.75
2018-02-18T02:50:15.965Z,102107.20
2018-02-18T02:52:44.417Z,102112.23
2018-02-18T02:55:13.713Z,102107.96
2018-02-18T02:57:42.979Z,102109.45
2018-02-18T03:00:11.796Z,102106.25
2018-02-18T03:02:40.367Z,102104.50
2018-02-18T03:05:08.848Z,102094.63
2018-02-18T03:07:37.397Z,102103.33
2018-02-18T03:10:05.791Z,102098.39
2018-02-18T03:12:34.183Z,102093.80
2018-02-18T03:15:02.619Z,102094.08
2018-02-18T03:17:30.989Z,102089.31
2018-02-18T03:19:59.443Z,102087.44
2018-02-18T03:22:27.860Z,102081.44
2018-02-18T03:24:56.314Z,102075.75
2018-02-18T03:27:24.710Z,102076.52
2018-02-18T03:29:53.864Z,102066.84
2018-02-18T03:32:22.289Z,102074.30
2018-02-18T03:34:51.508Z,102072.55
2018-02-18T03:37:19.892Z,102074.66
2018-02-18T03:39:48.269Z,102074.88
2018-02-18T03:42:17.179Z,102081.96
2018-02-18T03:44:45.570Z,102077.14
2018-02-18T03:47:13.977Z,102076.80
2018-02-18T03:49:42.375Z,102078.30
2018-02-18T03:52:11.556Z,102076.75
2018-02-18T03:54:39.952Z,102074.53
2018-02-18T03:57:09.295Z,102075.02
2018-02-18T03:59:37.759Z,102070.92
2018-02-18T04:02:06.177Z,102073.15
2018-02-18T04:04:34.598Z,102068.14
2018-02-18T04:07:03.750Z,102067.05
2018-02-18T04:09:32.162Z,102063.77
2018-02-18T04:12:01.331Z,102071.08
2018-02-18T04:14:29.727Z,102077.35
2018-02-18T04:16:58.109Z,102076.80
2018-02-18T04:19:26.503Z,102083.27
2018-02-18T04:21:54.899Z,102084.82
2018-02-18T04:24:24.055Z,102088.20
2018-02-18T04:26:52.478Z,102089.41
2018-02-18T04:29:20.851Z,102089.64
2018-02-18T04:31:50.008Z,102092.63
2018-02-18T04:34:18.435Z,102093.27
2018-02-18T04:36:46.870Z,102096.36
2018-02-18T04:39:15.264Z,102096.30
2018-02-18T04:41:43.716Z,102090.80
2018-02-18T04:44:12.119Z,102102.39
2018-02-18T04:46:40.698Z,102100.02
2018-02-18T04:49:09.162Z,102097.02
2018-02-18T04:51:38.571Z,102094.52
2018-02-18T04:54:06.982Z,102097.08
2018-02-18T04:56:35.367Z,102104.44
2018-02-18T04:59:03.794Z,102104.09
2018-02-18T05:01:32.186Z,102100.95
2018-02-18T05:04:01.392Z,102096.75
2018-02-18T05:06:29.772Z,102101.11
2018-02-18T05:08:58.206Z,102107.87
2018-02-18T05:11:27.351Z,102113.72
2018-02-18T05:13:55.914Z,102119.16
2018-02-18T05:16:24.322Z,102116.94
2018-02-18T05:18:52.724Z,102111.08
2018-02-18T05:21:21.101Z,102104.55
2018-02-18T05:23:49.504Z,102115.72
2018-02-18T05:26:18.696Z,102113.66
2018-02-18T05:28:47.857Z,102112.00
2018-02-18T05:31:16.244Z,102112.13
2018-02-18T05:33:44.698Z,102103.92
2018-02-18T05:36:13.131Z,102100.10
2018-02-18T05:38:41.549Z,102101.44
2018-02-18T05:41:09.939Z,102106.91
2018-02-18T05:43:38.327Z,102111.48
2018-02-18T05:46:06.727Z,102111.60
2018-02-18T05:48:35.133Z,102117.82
2018-02-18T05:51:03.639Z,102114.23
2018-02-18T05:53:32.024Z,102115.61
2018-02-18T05:56:00.437Z,102114.89
2018-02-18T05:58:28.840Z,102124.73
2018-02-18T06:00:57.278Z,102123.20
2018-02-18T06:03:25.859Z,102113.73
2018-02-18T06:05:54.250Z,102116.72
2018-02-18T06:08:22.670Z,102108.41
2018-02-18T06:10:51.906Z,102107.19
2018-02-18T06:13:21.063Z,102104.48
2018-02-18T06:15:49.524Z,102106.20
2018-02-18T06:18:20.768Z,102111.30
2018-02-18T06:20:49.182Z,102111.30
2018-02-18T06:23:17.605Z,102108.25
2018-02-18T06:25:46.671Z,102115.95
2018-02-18T06:28:16.066Z,102112.45
2018-02-18T06:30:44.483Z,102113.02
2018-02-18T06:33:13.639Z,102119.14
2018-02-18T06:35:42.054Z,102116.09
2018-02-18T06:38:10.448Z,102124.45
2018-02-18T06:40:38.849Z,102124.41
2018-02-18T06:43:07.268Z,102125.42
2018-02-18T06:45:36.434Z,102122.30
2018-02-18T06:48:05.852Z,102119.54
2018-02-18T06:50:35.213Z,102117.22
2018-02-18T06:53:03.634Z,102122.63
2018-02-18T06:55:32.763Z,102114.98
2018-02-18T06:58:01.989Z,102118.20
2018-02-18T07:00:30.376Z,102123.36
2018-02-18T07:02:59.495Z,102140.07
2018-02-18T07:05:27.915Z,102140.05
2018-02-18T07:07:57.075Z,102148.10
2018-02-18T07:10:25.475Z,102138.13
2018-02-18T07:12:54.792Z,102135.28
2018-02-18T07:15:24.019Z,102130.52
2018-02-18T07:17:52.559Z,102136.77
2018-02-18T07:20:20.959Z,102137.59
2018-02-18T07:22:50.119Z,102132.02
2018-02-18T07:25:18.531Z,102128.25
2018-02-18T07:27:47.705Z,102131.45
2018-02-18T07:30:16.112Z,102133.47
2018-02-18T07:32:45.266Z,102139.52
2018-02-18T07:35:13.651Z,102140.10
2018-02-18T07:37:42.226Z,102133.16
2018-02-18T07:40:10.640Z,102130.81
2018-02-18T07:42:39.978Z,102124.52
2018-02-18T07:45:08.395Z,102125.29
2018-02-18T07:47:36.771Z,102127.59
2018-02-18T07:50:05.287Z,102127.13
2018-02-18T07:52:34.451Z,102124.95
2018-02-18T07:55:02.987Z,102121.77
2018-02-18T07:57:32.229Z,102124.05
2018-02-18T08:00:00.739Z,102126.03
2018-02-18T08:02:29.198Z,102116.64
2018-02-18T08:04:57.719Z,102120.95
2018-02-18T08:07:26.119Z,102117.66
2018-02-18T08:09:55.301Z,102118.89
2018-02-18T08:12:24.597Z,102112.16
2018-02-18T08:14:53.007Z,102114.02
2018-02-18T08:17:21.464Z,102106.45
2018-02-18T08:19:50.653Z,102108.42
2018-02-18T08:22:19.842Z,102118.63
2018-02-18T08:24:48.275Z,102123.38
2018-02-18T08:27:16.695Z,102118.47
2018-02-18T08:29:45.114Z,102112.63
2018-02-18T08:32:13.564Z,102118.59
2018-02-18T08:34:41.983Z,102114.58
2018-02-18T08:37:11.928Z,102114.63
2018-02-18T08:39:40.653Z,102116.88
2018-02-18T08:42:09.951Z,102119.01
2018-02-18T08:44:38.674Z,102113.50
2018-02-18T08:47:07.934Z,102113.45
2018-02-18T08:49:36.320Z,102111.58
2018-02-18T08:52:04.697Z,102113.83
2018-02-18T08:54:33.853Z,102109.92
2018-02-18T08:57:02.729Z,102117.08
2018-02-18T08:59:31.150Z,102110.52
2018-02-18T09:01:59.541Z,102120.44
2018-02-18T09:04:27.930Z,102120.14
2018-02-18T09:06:56.299Z,102120.39
2018-02-18T09:09:24.690Z,102127.14
2018-02-18T09:11:53.834Z,102131.98
2018-02-18T09:14:22.277Z,102129.17
2018-02-18T09:16:51.662Z,102131.73
2018-02-18T09:19:20.060Z,102133.75
2018-02-18T09:21:49.207Z,102132.97
2018-02-18T09:24:17.608Z,102119.66
2018-02-18T09:26:45.999Z,102120.91
2018-02-18T09:29:14.394Z,102119.11
2018-02-18T09:31:43.573Z,102111.24
2018-02-18T09:34:11.967Z,102108.23
2018-02-18T09:36:41.690Z,102115.59
2018-02-18T09:39:10.167Z,102116.25
2018-02-18T09:41:39.427Z,102118.76
2018-02-18T09:44:07.824Z,102123.95
2018-02-18T09:46:36.216Z,102120.98
2018-02-18T09:49:04.607Z,102119.12
2018-02-18T09:51:32.999Z,102119.51
2018-02-18T09:54:02.168Z,102123.23
2018-02-18T09:56:30.544Z,102115.39
2018-02-18T09:58:58.991Z,102113.09
2018-02-18T10:01:27.844Z,102106.23
2018-02-18T10:03:56.247Z,102108.23
2018-02-18T10:06:24.668Z,102113.47
2018-02-18T10:08:53.065Z,102115.36
2018-02-18T10:11:21.584Z,102110.86
2018-02-18T10:13:50.835Z,102112.56
2018-02-18T10:16:19.248Z,102109.89
2018-02-18T10:18:47.667Z,102117.98
2018-02-18T10:21:16.061Z,102118.59
2018-02-18T10:23:44.485Z,102119.80
2018-02-18T10:26:12.933Z,102119.08
2018-02-18T10:28:41.407Z,102125.15
2018-02-18T10:31:09.871Z,102121.55
2018-02-18T10:33:38.277Z,102127.55
2018-02-18T10:36:06.749Z,102129.61
2018-02-18T10:38:35.161Z,102120.28
2018-02-18T10:41:03.597Z,102119.08
2018-02-18T10:43:32.824Z,102123.09
2018-02-18T10:46:01.240Z,102120.48
2018-02-18T10:48:29.630Z,102115.93
2018-02-18T10:50:58.018Z,102117.30
2018-02-18T10:53:26.401Z,102115.38
2018-02-18T10:55:55.576Z,102104.03
2018-02-18T10:58:23.996Z,102110.63
2018-02-18T11:00:53.176Z,102100.14
2018-02-18T11:03:21.576Z,102095.00
2018-02-18T11:05:50.737Z,102111.59
2018-02-18T11:08:19.921Z,102102.90
2018-02-18T11:10:48.317Z,102103.36
2018-02-18T11:13:16.733Z,102104.76
2018-02-18T11:15:45.969Z,102101.83
2018-02-18T11:18:14.372Z,102099.30
2018-02-18T11:20:42.803Z,102107.97
2018-02-18T11:23:11.217Z,102104.16
2018-02-18T11:25:39.701Z,102099.40
2018-02-18T11:28:08.135Z,102096.86
2018-02-18T11:30:36.524Z,102095.49
2018-02-18T11:33:04.955Z,102099.77
2018-02-18T11:35:33.360Z,102107.31
2018-02-18T11:38:01.792Z,102095.94
2018-02-18T11:40:30.272Z,102090.22
2018-02-18T11:42:58.680Z,102090.53
2018-02-18T11:45:27.162Z,102082.41
2018-02-18T11:47:55.642Z,102080.21
2018-02-18T11:50:24.044Z,102081.63
2018-02-18T11:52:52.423Z,102076.52
2018-02-18T11:55:20.844Z,102079.49
2018-02-18T11:57:50.007Z,102071.11
2018-02-18T12:00:18.470Z,102079.19
2018-02-18T12:02:46.880Z,102070.13
2018-02-18T12:05:15.283Z,102068.84
2018-02-18T12:07:43.686Z,102066.12
2018-02-18T12:10:12.989Z,102066.08
2018-02-18T12:12:42.179Z,102060.06
2018-02-18T12:15:10.562Z,102054.81
2018-02-18T12:17:39.762Z,102055.70
2018-02-18T12:20:08.912Z,102050.11
2018-02-18T12:22:37.318Z,102046.22
2018-02-18T12:25:05.790Z,102040.99
2018-02-18T12:27:34.216Z,102042.75
2018-02-18T12:30:02.661Z,102041.56
2018-02-18T12:32:31.892Z,102044.41
2018-02-18T12:35:01.089Z,102037.10
2018-02-18T12:37:30.245Z,102041.12
2018-02-18T12:39:58.660Z,102035.89
2018-02-18T12:42:27.833Z,102038.50
2018-02-18T12:44:56.243Z,102033.78
2018-02-18T12:47:25.418Z,102027.76
2018-02-18T12:49:53.860Z,102023.55
2018-02-18T12:52:22.271Z,102018.79
2018-02-18T12:54:50.833Z,102019.27
2018-02-18T12:57:19.288Z,102019.11
2018-02-18T12:59:47.818Z,102020.41
2018-02-18T13:02:16.240Z,102012.21
2018-02-18T13:04:45.484Z,102008.11
2018-02-18T13:07:13.873Z,102001.05
2018-02-18T13:09:42.285Z,101998.84
2018-02-18T13:12:11.436Z,101987.56
2018-02-18T13:14:39.874Z,101994.02
2018-02-18T13:17:09.061Z,101988.22
2018-02-18T13:19:38.299Z,101981.39
2018-02-18T13:22:06.712Z,101981.50
2018-02-18T13:24:35.111Z,101982.31
2018-02-18T13:27:03.863Z,101983.34
2018-02-18T13:29:32.251Z,101986.63
2018-02-18T13:32:00.661Z,101984.02
2018-02-18T13:34:29.071Z,101979.33
2018-02-18T13:36:58.292Z,101981.83
2018-02-18T13:39:26.706Z,101980.09
2018-02-18T13:41:55.211Z,101975.34
2018-02-18T13:44:25.944Z,101967.92
2018-02-18T13:46:54.715Z,101960.94
2018-02-18T13:49:23.239Z,101960.11
2018-02-18T13:51:52.752Z,101964.17
2018-02-18T13:54:21.957Z,101960.92
2018-02-18T13:56:51.114Z,101963.38
2018-02-18T13:59:19.704Z,101961.67
2018-02-18T14:01:48.145Z,101962.65
2018-02-18T14:04:16.571Z,101953.56
2018-02-18T14:06:45.057Z,101951.11
2018-02-18T14:09:15.380Z,101943.64
2018-02-18T14:11:46.422Z,101947.05
2018-02-18T14:14:15.850Z,101950.12
2018-02-18T14:16:45.174Z,101947.16
2018-02-18T14:19:15.542Z,101942.86
2018-02-18T14:21:44.105Z,101949.20
2018-02-18T14:24:12.502Z,101950.70
2018-02-18T14:26:40.918Z,101948.45
2018-02-18T14:29:09.349Z,101951.17
2018-02-18T14:31:37.729Z,101951.78
2018-02-18T14:34:06.104Z,101954.52
2018-02-18T14:36:34.503Z,101951.16
2018-02-18T14:39:02.910Z,101947.67
2018-02-18T14:41:49.264Z,101952.70
2018-02-18T14:44:35.472Z,101946.62
2018-02-18T14:47:17.231Z,101949.01
2018-02-18T14:50:04.008Z,101949.22
2018-02-18T14:52:50.239Z,101939.15
2018-02-18T14:58:32.978Z,101937.23
2018-02-18T15:01:01.388Z,101935.75
2018-02-18T15:03:29.776Z,101928.99
2018-02-18T15:05:58.181Z,101934.67
2018-02-18T15:08:26.550Z,101938.00
2018-02-18T15:10:54.969Z,101933.67
2018-02-18T15:13:23.432Z,101931.57
2018-02-18T15:15:51.878Z,101927.22
2018-02-18T15:18:20.441Z,101924.53
2018-02-18T15:20:48.856Z,101922.91
2018-02-18T15:23:17.420Z,101920.77
2018-02-18T15:25:45.865Z,101920.02
2018-02-18T15:28:14.265Z,101920.66
2018-02-18T15:30:43.436Z,101920.97
2018-02-18T15:33:11.915Z,101917.15
2018-02-18T15:35:40.335Z,101913.45
2018-02-18T15:38:09.506Z,101917.45
2018-02-18T15:40:37.926Z,101919.56
2018-02-18T15:43:06.340Z,101916.71
2018-02-18T15:45:34.754Z,101907.92
2018-02-18T15:48:03.943Z,101913.97
2018-02-18T15:50:32.492Z,101915.91
2018-02-18T15:53:00.911Z,101914.32
2018-02-18T15:55:29.320Z,101911.70
2018-02-18T15:57:58.485Z,101908.94
2018-02-18T16:00:26.897Z,101911.83
2018-02-18T16:02:56.040Z,101912.02
2018-02-18T16:05:24.613Z,101905.41
2018-02-18T16:07:53.279Z,101902.42
2018-02-18T16:10:21.863Z,101902.73
2018-02-18T16:12:50.295Z,101902.30
2018-02-18T16:15:19.132Z,101898.13
2018-02-18T16:17:47.838Z,101902.13
2018-02-18T16:20:16.562Z,101898.95
2018-02-18T16:22:45.115Z,101902.72
2018-02-18T16:25:24.181Z,101901.89
2018-02-18T16:27:52.645Z,101901.98
2018-02-18T16:30:21.059Z,101899.19
2018-02-18T16:32:49.478Z,101898.47
2018-02-18T16:35:17.914Z,101901.61
2018-02-18T16:37:47.177Z,101906.90
2018-02-18T16:40:15.599Z,101906.19
2018-02-18T16:42:44.751Z,101910.96
2018-02-18T16:45:13.680Z,101908.08
2018-02-18T16:47:42.850Z,101907.06
2018-02-18T16:50:11.257Z,101911.06
2018-02-18T16:52:39.703Z,101918.69
2018-02-18T16:55:08.100Z,101916.84
2018-02-18T16:57:36.507Z,101915.39
2018-02-18T17:00:05.864Z,101914.86
2018-02-18T17:02:46.252Z,101913.30
2018-02-18T17:05:15.141Z,101910.92
2018-02-18T17:07:45.222Z,101927.59
2018-02-18T17:10:14.131Z,101924.52
2018-02-18T17:12:42.889Z,101910.66
2018-02-18T17:15:11.704Z,101910.58
2018-02-18T17:17:40.181Z,101911.23
2018-02-18T17:20:08.798Z,101912.34
2018-02-18T17:22:38.148Z,101906.41
2018-02-18T17:25:08.066Z,101912.38
2018-02-18T17:27:37.427Z,101911.63
2018-02-18T17:30:05.843Z,101904.66
2018-02-18T17:32:35.028Z,101906.06
2018-02-18T17:35:03.571Z,101900.76
2018-02-18T17:37:31.975Z,101906.96
2018-02-18T17:40:00.449Z,101901.77
2018-02-18T17:42:29.079Z,101894.63
2018-02-18T17:44:58.267Z,101898.08
2018-02-18T17:47:26.741Z,101896.70
2018-02-18T17:49:55.140Z,101896.09
2018-02-18T17:52:24.478Z,101893.28
2018-02-18T17:54:52.955Z,101888.39
2018-02-18T17:57:21.378Z,101895.25
2018-02-18T17:59:49.761Z,101900.34
2018-02-18T18:02:18.200Z,101896.75
2018-02-18T18:04:46.596Z,101900.29
2018-02-18T18:07:15.025Z,101896.78
2018-02-18T18:10:00.463Z,101897.56
2018-02-18T18:12:29.148Z,101897.55
2018-02-18T18:14:57.589Z,101904.14
2018-02-18T18:17:26.804Z,101902.23
2018-02-18T18:19:55.224Z,101900.14
2018-02-18T18:22:23.697Z,101889.38
2018-02-18T18:24:52.102Z,101890.91
2018-02-18T18:27:20.541Z,101903.52
2018-02-18T18:29:49.057Z,101899.50
2018-02-18T18:32:17.648Z,101893.12
2018-02-18T18:34:48.624Z,101891.88
2018-02-18T18:37:17.947Z,101893.65
2018-02-18T18:39:47.396Z,101896.25
2018-02-18T18:42:15.864Z,101897.98
2018-02-18T18:44:44.295Z,101890.95
2018-02-18T18:47:12.944Z,101892.59
2018-02-18T18:49:41.380Z,101892.77
2018-02-18T18:52:09.793Z,101889.44
2018-02-18T18:54:38.213Z,101896.20
2018-02-18T18:57:06.662Z,101903.81
2018-02-18T18:59:35.089Z,101903.22
2018-02-18T19:02:04.264Z,101901.89
2018-02-18T19:04:32.714Z,101902.94
2018-02-18T19:07:01.132Z,101908.84
2018-02-18T19:09:29.572Z,101908.48
2018-02-18T19:11:58.936Z,101901.25
2018-02-18T19:14:28.137Z,101901.05
2018-02-18T19:16:56.607Z,101904.48
2018-02-18T19:19:25.052Z,101909.80
2018-02-18T19:21:53.489Z,101906.23
2018-02-18T19:24:22.330Z,101906.17
2018-02-18T19:26:51.003Z,101904.13
2018-02-18T19:29:19.615Z,101902.16
2018-02-18T19:31:48.283Z,101909.68
2018-02-18T19:34:16.994Z,101901.32
2018-02-18T19:36:45.529Z,101903.46
2018-02-18T19:39:14.226Z,101892.97
2018-02-18T19:41:43.433Z,101887.66
2018-02-18T19:44:12.997Z,101894.53
2018-02-18T19:46:41.506Z,101890.54
2018-02-18T19:49:11.119Z,101894.55
2018-02-18T19:51:39.557Z,101895.96
2018-02-18T19:54:08.048Z,101895.03
2018-02-18T19:56:36.531Z,101899.23
2018-02-18T19:59:06.245Z,101897.38
2018-02-18T20:01:34.820Z,101893.45
2018-02-18T20:04:03.560Z,101894.91
2018-02-18T20:06:41.715Z,101900.34
2018-02-18T20:12:04.920Z,101896.08
2018-02-18T20:14:35.272Z,101899.36
2018-02-18T20:17:03.938Z,101898.64
2018-02-18T20:19:33.892Z,101905.28
2018-02-18T20:22:03.391Z,101904.37
2018-02-18T20:24:34.990Z,101906.92
2018-02-18T20:27:03.600Z,101904.61
2018-02-18T20:29:32.892Z,101894.56
2018-02-18T20:32:01.640Z,101896.28
2018-02-18T20:34:30.110Z,101894.08
2018-02-18T20:37:02.934Z,101899.27
2018-02-18T20:39:32.094Z,101889.54
2018-02-18T20:42:02.028Z,101884.85
2018-02-18T20:44:31.309Z,101883.45
2018-02-18T20:46:59.758Z,101876.49
2018-02-18T20:49:28.566Z,101875.76
2018-02-18T20:51:57.015Z,101877.55
2018-02-18T20:54:25.426Z,101874.39
2018-02-18T20:56:53.934Z,101864.02
2018-02-18T20:59:22.362Z,101856.67
2018-02-18T21:01:51.555Z,101858.39
2018-02-18T21:04:20.169Z,101861.59
2018-02-18T21:06:49.337Z,101867.42
2018-02-18T21:09:17.740Z,101862.48
2018-02-18T21:11:46.914Z,101863.59
2018-02-18T21:14:15.380Z,101870.56
2018-02-18T21:16:43.879Z,101871.01
2018-02-18T21:19:12.291Z,101873.04
2018-02-18T21:21:40.687Z,101875.20
2018-02-18T21:24:09.266Z,101867.33
2018-02-18T21:26:37.839Z,101857.89
2018-02-18T21:29:07.105Z,101862.61
2018-02-18T21:31:35.547Z,101866.70
2018-02-18T21:34:04.717Z,101855.41
2018-02-18T21:36:33.167Z,101851.96
2018-02-18T21:39:01.553Z,101853.70
2018-02-18T21:41:29.950Z,101848.61
2018-02-18T21:43:58.383Z,101853.16
2018-02-18T21:46:26.800Z,101851.33
2018-02-18T21:48:55.201Z,101849.21
2018-02-18T21:51:23.609Z,101848.55
2018-02-18T21:53:52.778Z,101839.94
2018-02-18T21:56:21.193Z,101834.88
2018-02-18T21:58:50.392Z,101830.66
2018-02-18T22:01:19.566Z,101828.00
2018-02-18T22:03:48.013Z,101828.17
2018-02-18T22:06:17.106Z,101833.59
2018-02-18T22:08:45.525Z,101821.84
2018-02-18T22:11:13.924Z,101816.61
2018-02-18T22:13:43.128Z,101815.89
2018-02-18T22:16:12.294Z,101820.78
2018-02-18T22:18:40.685Z,101813.81
2018-02-18T22:21:09.085Z,101813.00
2018-02-18T22:23:38.240Z,101816.98
2018-02-18T22:26:06.647Z,101818.28
2018-02-18T22:28:35.036Z,101818.09
2018-02-18T22:31:03.581Z,101822.72
2018-02-18T22:33:31.976Z,101830.16
2018-02-18T22:36:00.409Z,101830.52
2018-02-18T22:38:30.271Z,101831.01
2018-02-18T22:40:58.651Z,101831.73
2018-02-18T22:43:27.047Z,101832.40
2018-02-18T22:45:55.448Z,101835.03
2018-02-18T22:48:24.766Z,101837.95
2018-02-18T22:50:53.201Z,101840.95
2018-02-18T22:53:21.596Z,101840.17
2018-02-18T22:55:50.007Z,101839.63
2018-02-18T22:58:19.216Z,101840.99
2018-02-18T23:00:47.683Z,101842.30
2018-02-18T23:03:16.883Z,101842.50
2018-02-18T23:05:50.715Z,101840.74
2018-02-18T23:08:19.120Z,101841.72
2018-02-18T23:10:47.584Z,101834.91
2018-02-18T23:13:15.980Z,101842.19
2018-02-18T23:15:44.527Z,101837.08
2018-02-18T23:18:12.943Z,101842.87
2018-02-18T23:20:59.095Z,101847.14
2018-02-18T23:23:28.280Z,101840.86
2018-02-18T23:25:56.819Z,101838.48
2018-02-18T23:28:25.192Z,101831.98
